Country
Station

 

Weather  for  Warton  -  United Kingdom    United Kingdom

  
8 °C (46 °F)
    
 
 

Current METAR for Warton is :

EGNO 191350Z 20008KT 170V240 9999 FEW018 BKN043 08/05 Q1015

 

This is a report for Warton - United Kingdom.
 
The report was made 21 minutes ago, at 13:50 UTC .
The wind was blowing at a speed of 4.1 meters per second (9.2 miles per hour) from south/southwest (200°), varying between south (170°) and west/southwest (240°).
 
The temperature was 8 °C (46 °F), with a dew-point at 5 °C (41 °F).
The atmospheric pressure was 1015 hPa (29.97 inHg).
The relative humidity was 81.3%.
 
There were a few clouds at a height of 549 meters (1800 feet) and broken clouds at a height of 1311 meters (4300 feet).
 
The overall visibility was greater than 10 kilometers (6.2 miles).
 

 
 
 
 

Country :   A   B   C   D   E   F   G   H   I   J   K   L   M   N   O   P   Q   R   S   T   U   V   W   Y   Z

 

Site Info  |  Disclaimer  |  Credits  |  Privacy
Contact us  |  Add to favorites
© 2013-2019 METARs - All rights reserved